Terminal Aerodrome Forecast
Issued by NWS Sioux Falls, SD

Home | Current Version | Previous Version | Text Only | Print | Product List | Glossary On
Versions: 1 2 3 4 5 6 7 8 9 10 11 12 13 14 15
039
FTUS43 KFSD 230418 AAA
TAFHON
TAF AMD
KHON 230418Z 2304/2324 36013G19KT P6SM BKN015
     FM231100 02010KT P6SM OVC015
     FM231500 04011KT 5SM -SN OVC015
     FM231700 05012KT 2SM -SN OVC008=

USA.gov is the U.S. government's official web portal to all federal, state and local government web resources and services.